sensor_id;sensor_type;location;lat;lon;timestamp;P1;durP1;ratioP1;P2;durP2;ratioP2
76826;SDS011;65788;52.284;20.890;2023-04-03T00:00:36;4.00;;;2.10;;
76826;SDS011;65788;52.284;20.890;2023-04-03T00:03:15;4.30;;;2.60;;
76826;SDS011;65788;52.284;20.890;2023-04-03T00:05:43;4.30;;;1.90;;
76826;SDS011;65788;52.284;20.890;2023-04-03T00:08:10;4.10;;;2.30;;
76826;SDS011;65788;52.284;20.890;2023-04-03T00:10:37;3.50;;;2.00;;
76826;SDS011;65788;52.284;20.890;2023-04-03T00:13:05;3.80;;;1.90;;
76826;SDS011;65788;52.284;20.890;2023-04-03T00:15:34;3.70;;;1.90;;
76826;SDS011;65788;52.284;20.890;2023-04-03T00:18:02;3.70;;;1.90;;
76826;SDS011;65788;52.284;20.890;2023-04-03T00:20:30;3.40;;;1.90;;
76826;SDS011;65788;52.284;20.890;2023-04-03T00:22:57;3.40;;;1.90;;
76826;SDS011;65788;52.284;20.890;2023-04-03T00:25:25;3.50;;;1.80;;
76826;SDS011;65788;52.284;20.890;2023-04-03T00:27:52;4.00;;;1.90;;
76826;SDS011;65788;52.284;20.890;2023-04-03T00:30:20;3.20;;;1.80;;
76826;SDS011;65788;52.284;20.890;2023-04-03T00:32:51;3.00;;;1.60;;
76826;SDS011;65788;52.284;20.890;2023-04-03T00:35:19;4.20;;;2.00;;
76826;SDS011;65788;52.284;20.890;2023-04-03T00:37:50;4.00;;;1.90;;
76826;SDS011;65788;52.284;20.890;2023-04-03T00:40:21;4.00;;;1.70;;
76826;SDS011;65788;52.284;20.890;2023-04-03T00:42:59;3.00;;;1.90;;
76826;SDS011;65788;52.284;20.890;2023-04-03T00:45:35;3.60;;;2.20;;
76826;SDS011;65788;52.284;20.890;2023-04-03T00:48:05;2.70;;;1.60;;
76826;SDS011;65788;52.284;20.890;2023-04-03T00:50:37;2.70;;;1.50;;
76826;SDS011;65788;52.284;20.890;2023-04-03T00:53:06;2.90;;;1.80;;
76826;SDS011;65788;52.284;20.890;2023-04-03T00:55:38;3.30;;;1.80;;
76826;SDS011;65788;52.284;20.890;2023-04-03T00:58:06;3.40;;;1.70;;
76826;SDS011;65788;52.284;20.890;2023-04-03T01:00:35;3.80;;;1.90;;
76826;SDS011;65788;52.284;20.890;2023-04-03T01:03:06;3.10;;;1.70;;
76826;SDS011;65788;52.284;20.890;2023-04-03T01:05:35;2.30;;;1.50;;
76826;SDS011;65788;52.284;20.890;2023-04-03T01:08:03;3.10;;;1.40;;
76826;SDS011;65788;52.284;20.890;2023-04-03T01:10:30;3.40;;;1.80;;
76826;SDS011;65788;52.284;20.890;2023-04-03T01:12:57;3.40;;;1.50;;
76826;SDS011;65788;52.284;20.890;2023-04-03T01:15:27;2.90;;;1.70;;
76826;SDS011;65788;52.284;20.890;2023-04-03T01:17:57;3.90;;;1.80;;
76826;SDS011;65788;52.284;20.890;2023-04-03T01:28:15;3.20;;;1.50;;
76826;SDS011;65788;52.284;20.890;2023-04-03T01:30:57;3.20;;;1.60;;
76826;SDS011;65788;52.284;20.890;2023-04-03T01:33:35;3.20;;;1.80;;
76826;SDS011;65788;52.284;20.890;2023-04-03T01:36:03;3.00;;;1.70;;
76826;SDS011;65788;52.284;20.890;2023-04-03T01:38:31;3.30;;;1.50;;
76826;SDS011;65788;52.284;20.890;2023-04-03T01:40:59;2.60;;;1.70;;
76826;SDS011;65788;52.284;20.890;2023-04-03T01:43:26;2.30;;;1.30;;
76826;SDS011;65788;52.284;20.890;2023-04-03T01:45:54;3.90;;;1.40;;
76826;SDS011;65788;52.284;20.890;2023-04-03T01:48:21;2.80;;;1.50;;
76826;SDS011;65788;52.284;20.890;2023-04-03T01:50:48;2.90;;;1.40;;
76826;SDS011;65788;52.284;20.890;2023-04-03T01:53:15;2.70;;;1.50;;
76826;SDS011;65788;52.284;20.890;2023-04-03T01:55:42;2.50;;;1.50;;
76826;SDS011;65788;52.284;20.890;2023-04-03T01:58:09;2.80;;;1.60;;
76826;SDS011;65788;52.284;20.890;2023-04-03T02:00:36;2.70;;;1.50;;
76826;SDS011;65788;52.284;20.890;2023-04-03T02:03:03;3.00;;;1.50;;
76826;SDS011;65788;52.284;20.890;2023-04-03T02:05:33;3.20;;;1.50;;
76826;SDS011;65788;52.284;20.890;2023-04-03T02:08:00;3.00;;;1.40;;
76826;SDS011;65788;52.284;20.890;2023-04-03T02:10:27;2.80;;;1.40;;
76826;SDS011;65788;52.284;20.890;2023-04-03T02:12:54;2.90;;;1.60;;
76826;SDS011;65788;52.284;20.890;2023-04-03T02:15:24;3.50;;;1.30;;
76826;SDS011;65788;52.284;20.890;2023-04-03T02:17:51;3.30;;;1.70;;
76826;SDS011;65788;52.284;20.890;2023-04-03T02:20:19;2.30;;;1.40;;
76826;SDS011;65788;52.284;20.890;2023-04-03T02:22:46;2.70;;;1.40;;
76826;SDS011;65788;52.284;20.890;2023-04-03T02:25:14;2.40;;;1.20;;
76826;SDS011;65788;52.284;20.890;2023-04-03T02:27:41;2.80;;;1.50;;
76826;SDS011;65788;52.284;20.890;2023-04-03T02:30:10;2.60;;;1.30;;
76826;SDS011;65788;52.284;20.890;2023-04-03T02:35:06;2.40;;;1.20;;
76826;SDS011;65788;52.284;20.890;2023-04-03T02:37:33;2.20;;;1.40;;
76826;SDS011;65788;52.284;20.890;2023-04-03T02:40:01;2.60;;;1.40;;
76826;SDS011;65788;52.284;20.890;2023-04-03T02:42:28;2.20;;;1.30;;
76826;SDS011;65788;52.284;20.890;2023-04-03T02:44:56;2.10;;;1.20;;
76826;SDS011;65788;52.284;20.890;2023-04-03T02:47:23;3.90;;;1.40;;
76826;SDS011;65788;52.284;20.890;2023-04-03T02:49:50;2.70;;;1.50;;
76826;SDS011;65788;52.284;20.890;2023-04-03T02:52:19;2.70;;;1.40;;
76826;SDS011;65788;52.284;20.890;2023-04-03T02:54:46;2.20;;;1.30;;
76826;SDS011;65788;52.284;20.890;2023-04-03T02:57:16;3.30;;;1.50;;
76826;SDS011;65788;52.284;20.890;2023-04-03T02:59:43;2.10;;;1.20;;
76826;SDS011;65788;52.284;20.890;2023-04-03T03:02:10;2.30;;;1.30;;
76826;SDS011;65788;52.284;20.890;2023-04-03T03:04:38;2.70;;;1.40;;
76826;SDS011;65788;52.284;20.890;2023-04-03T03:07:05;4.30;;;1.30;;
76826;SDS011;65788;52.284;20.890;2023-04-03T03:09:32;2.20;;;1.20;;
76826;SDS011;65788;52.284;20.890;2023-04-03T03:11:59;3.10;;;1.30;;
76826;SDS011;65788;52.284;20.890;2023-04-03T03:14:26;2.60;;;1.20;;
76826;SDS011;65788;52.284;20.890;2023-04-03T03:16:53;3.80;;;1.60;;
76826;SDS011;65788;52.284;20.890;2023-04-03T03:19:20;2.70;;;1.40;;
76826;SDS011;65788;52.284;20.890;2023-04-03T03:21:47;3.90;;;1.40;;
76826;SDS011;65788;52.284;20.890;2023-04-03T03:24:14;3.70;;;1.30;;
76826;SDS011;65788;52.284;20.890;2023-04-03T03:26:42;4.60;;;1.70;;
76826;SDS011;65788;52.284;20.890;2023-04-03T03:29:09;2.80;;;1.50;;
76826;SDS011;65788;52.284;20.890;2023-04-03T03:31:36;3.70;;;1.70;;
76826;SDS011;65788;52.284;20.890;2023-04-03T03:34:03;6.70;;;1.50;;
76826;SDS011;65788;52.284;20.890;2023-04-03T03:36:30;4.30;;;1.80;;
76826;SDS011;65788;52.284;20.890;2023-04-03T03:38:57;3.00;;;1.70;;
76826;SDS011;65788;52.284;20.890;2023-04-03T03:41:24;4.30;;;1.80;;
76826;SDS011;65788;52.284;20.890;2023-04-03T03:43:50;3.90;;;1.60;;
76826;SDS011;65788;52.284;20.890;2023-04-03T03:46:18;3.30;;;1.70;;
76826;SDS011;65788;52.284;20.890;2023-04-03T03:48:45;3.30;;;1.70;;
76826;SDS011;65788;52.284;20.890;2023-04-03T03:51:12;4.90;;;1.90;;
76826;SDS011;65788;52.284;20.890;2023-04-03T03:53:39;3.30;;;1.60;;
76826;SDS011;65788;52.284;20.890;2023-04-03T03:56:06;4.00;;;1.60;;
76826;SDS011;65788;52.284;20.890;2023-04-03T03:58:34;3.40;;;1.50;;
76826;SDS011;65788;52.284;20.890;2023-04-03T04:01:02;2.70;;;1.70;;
76826;SDS011;65788;52.284;20.890;2023-04-03T04:03:35;4.10;;;1.60;;
76826;SDS011;65788;52.284;20.890;2023-04-03T04:06:03;2.50;;;1.50;;
76826;SDS011;65788;52.284;20.890;2023-04-03T04:08:30;4.00;;;1.60;;
76826;SDS011;65788;52.284;20.890;2023-04-03T04:10:57;3.30;;;1.40;;
76826;SDS011;65788;52.284;20.890;2023-04-03T04:13:24;4.20;;;1.70;;
76826;SDS011;65788;52.284;20.890;2023-04-03T04:15:51;5.20;;;1.50;;
76826;SDS011;65788;52.284;20.890;2023-04-03T04:18:18;5.00;;;1.60;;
76826;SDS011;65788;52.284;20.890;2023-04-03T04:20:46;3.40;;;1.50;;
76826;SDS011;65788;52.284;20.890;2023-04-03T04:23:15;2.50;;;1.40;;
76826;SDS011;65788;52.284;20.890;2023-04-03T04:25:46;3.00;;;1.50;;
76826;SDS011;65788;52.284;20.890;2023-04-03T04:28:15;3.10;;;1.30;;
76826;SDS011;65788;52.284;20.890;2023-04-03T04:30:42;2.70;;;1.30;;
76826;SDS011;65788;52.284;20.890;2023-04-03T04:33:10;2.90;;;1.40;;
76826;SDS011;65788;52.284;20.890;2023-04-03T04:35:37;3.90;;;1.70;;
76826;SDS011;65788;52.284;20.890;2023-04-03T04:38:03;3.00;;;1.50;;
76826;SDS011;65788;52.284;20.890;2023-04-03T04:40:31;3.30;;;1.50;;
76826;SDS011;65788;52.284;20.890;2023-04-03T04:42:58;3.20;;;1.20;;
76826;SDS011;65788;52.284;20.890;2023-04-03T04:45:25;3.20;;;1.60;;
76826;SDS011;65788;52.284;20.890;2023-04-03T04:47:54;2.20;;;1.30;;
76826;SDS011;65788;52.284;20.890;2023-04-03T04:50:22;2.60;;;1.60;;
76826;SDS011;65788;52.284;20.890;2023-04-03T04:52:49;3.10;;;1.40;;
76826;SDS011;65788;52.284;20.890;2023-04-03T04:55:17;2.50;;;1.30;;
76826;SDS011;65788;52.284;20.890;2023-04-03T04:57:45;2.60;;;1.30;;
76826;SDS011;65788;52.284;20.890;2023-04-03T05:00:13;4.00;;;1.30;;
76826;SDS011;65788;52.284;20.890;2023-04-03T05:02:45;3.10;;;1.60;;
76826;SDS011;65788;52.284;20.890;2023-04-03T05:05:13;2.40;;;1.40;;
76826;SDS011;65788;52.284;20.890;2023-04-03T05:07:41;3.00;;;1.40;;
76826;SDS011;65788;52.284;20.890;2023-04-03T05:10:08;6.10;;;1.50;;
76826;SDS011;65788;52.284;20.890;2023-04-03T05:12:36;3.80;;;1.60;;
76826;SDS011;65788;52.284;20.890;2023-04-03T05:15:03;3.10;;;1.50;;
76826;SDS011;65788;52.284;20.890;2023-04-03T05:17:31;3.00;;;1.40;;
76826;SDS011;65788;52.284;20.890;2023-04-03T05:19:58;2.30;;;1.20;;
76826;SDS011;65788;52.284;20.890;2023-04-03T05:22:25;2.90;;;1.50;;
76826;SDS011;65788;52.284;20.890;2023-04-03T05:24:54;3.20;;;1.40;;
76826;SDS011;65788;52.284;20.890;2023-04-03T05:27:21;3.90;;;1.80;;
76826;SDS011;65788;52.284;20.890;2023-04-03T05:29:52;2.60;;;1.50;;
76826;SDS011;65788;52.284;20.890;2023-04-03T05:32:19;3.60;;;1.50;;
76826;SDS011;65788;52.284;20.890;2023-04-03T05:34:46;2.90;;;1.30;;
76826;SDS011;65788;52.284;20.890;2023-04-03T05:37:13;2.40;;;1.40;;
76826;SDS011;65788;52.284;20.890;2023-04-03T05:39:40;2.90;;;1.50;;
76826;SDS011;65788;52.284;20.890;2023-04-03T05:42:08;2.90;;;1.50;;
76826;SDS011;65788;52.284;20.890;2023-04-03T05:44:35;3.00;;;1.20;;
76826;SDS011;65788;52.284;20.890;2023-04-03T05:47:02;3.10;;;1.30;;
76826;SDS011;65788;52.284;20.890;2023-04-03T05:49:31;2.60;;;1.40;;
76826;SDS011;65788;52.284;20.890;2023-04-03T05:51:58;3.10;;;1.40;;
76826;SDS011;65788;52.284;20.890;2023-04-03T05:54:27;3.30;;;1.30;;
76826;SDS011;65788;52.284;20.890;2023-04-03T05:56:56;2.70;;;1.40;;
76826;SDS011;65788;52.284;20.890;2023-04-03T05:59:23;3.30;;;1.30;;
76826;SDS011;65788;52.284;20.890;2023-04-03T06:01:50;2.00;;;1.30;;
76826;SDS011;65788;52.284;20.890;2023-04-03T06:04:17;4.50;;;1.40;;
76826;SDS011;65788;52.284;20.890;2023-04-03T06:06:49;2.50;;;1.30;;
76826;SDS011;65788;52.284;20.890;2023-04-03T06:09:19;3.10;;;1.50;;
76826;SDS011;65788;52.284;20.890;2023-04-03T06:11:48;3.80;;;1.30;;
76826;SDS011;65788;52.284;20.890;2023-04-03T06:14:16;3.10;;;1.30;;
76826;SDS011;65788;52.284;20.890;2023-04-03T06:16:43;3.70;;;1.30;;
76826;SDS011;65788;52.284;20.890;2023-04-03T06:19:11;3.90;;;1.40;;
76826;SDS011;65788;52.284;20.890;2023-04-03T06:21:41;3.80;;;1.60;;
76826;SDS011;65788;52.284;20.890;2023-04-03T06:24:08;2.60;;;1.10;;
76826;SDS011;65788;52.284;20.890;2023-04-03T06:26:38;3.10;;;1.40;;
76826;SDS011;65788;52.284;20.890;2023-04-03T06:29:05;2.80;;;1.50;;
76826;SDS011;65788;52.284;20.890;2023-04-03T06:31:32;2.50;;;1.10;;
76826;SDS011;65788;52.284;20.890;2023-04-03T06:33:59;3.20;;;1.50;;
76826;SDS011;65788;52.284;20.890;2023-04-03T06:36:28;2.90;;;1.20;;
76826;SDS011;65788;52.284;20.890;2023-04-03T06:38:55;2.60;;;1.20;;
76826;SDS011;65788;52.284;20.890;2023-04-03T06:41:22;2.60;;;1.20;;
76826;SDS011;65788;52.284;20.890;2023-04-03T06:43:49;3.60;;;1.30;;
76826;SDS011;65788;52.284;20.890;2023-04-03T06:46:17;3.20;;;1.40;;
76826;SDS011;65788;52.284;20.890;2023-04-03T06:48:46;4.40;;;1.40;;
76826;SDS011;65788;52.284;20.890;2023-04-03T06:51:22;6.90;;;2.00;;
76826;SDS011;65788;52.284;20.890;2023-04-03T06:53:54;3.60;;;1.50;;
76826;SDS011;65788;52.284;20.890;2023-04-03T06:56:23;4.70;;;1.70;;
76826;SDS011;65788;52.284;20.890;2023-04-03T06:58:51;4.60;;;1.80;;
76826;SDS011;65788;52.284;20.890;2023-04-03T07:01:20;4.70;;;1.90;;
76826;SDS011;65788;52.284;20.890;2023-04-03T07:03:48;4.40;;;2.00;;
76826;SDS011;65788;52.284;20.890;2023-04-03T07:06:15;5.30;;;1.90;;
76826;SDS011;65788;52.284;20.890;2023-04-03T07:11:12;5.90;;;2.10;;
76826;SDS011;65788;52.284;20.890;2023-04-03T07:13:39;5.70;;;2.00;;
76826;SDS011;65788;52.284;20.890;2023-04-03T07:16:08;4.70;;;2.00;;
76826;SDS011;65788;52.284;20.890;2023-04-03T07:18:38;4.60;;;1.90;;
76826;SDS011;65788;52.284;20.890;2023-04-03T07:21:05;6.90;;;2.20;;
76826;SDS011;65788;52.284;20.890;2023-04-03T07:23:32;5.60;;;2.10;;
76826;SDS011;65788;52.284;20.890;2023-04-03T07:25:59;4.30;;;1.80;;
76826;SDS011;65788;52.284;20.890;2023-04-03T07:28:26;7.70;;;2.30;;
76826;SDS011;65788;52.284;20.890;2023-04-03T07:30:59;6.00;;;2.30;;
76826;SDS011;65788;52.284;20.890;2023-04-03T07:33:28;4.80;;;2.10;;
76826;SDS011;65788;52.284;20.890;2023-04-03T07:35:56;6.30;;;2.00;;
76826;SDS011;65788;52.284;20.890;2023-04-03T07:38:24;4.80;;;2.00;;
76826;SDS011;65788;52.284;20.890;2023-04-03T07:40:52;5.90;;;2.50;;
76826;SDS011;65788;52.284;20.890;2023-04-03T07:43:19;3.60;;;1.80;;
76826;SDS011;65788;52.284;20.890;2023-04-03T07:45:49;5.60;;;2.30;;
76826;SDS011;65788;52.284;20.890;2023-04-03T07:48:20;4.30;;;1.70;;
76826;SDS011;65788;52.284;20.890;2023-04-03T07:50:48;4.50;;;2.20;;
76826;SDS011;65788;52.284;20.890;2023-04-03T07:53:16;5.60;;;2.30;;
76826;SDS011;65788;52.284;20.890;2023-04-03T07:55:47;5.70;;;2.30;;
76826;SDS011;65788;52.284;20.890;2023-04-03T07:58:16;5.90;;;2.40;;
76826;SDS011;65788;52.284;20.890;2023-04-03T08:00:46;6.60;;;2.20;;
76826;SDS011;65788;52.284;20.890;2023-04-03T08:03:14;6.70;;;2.00;;
76826;SDS011;65788;52.284;20.890;2023-04-03T08:05:43;5.00;;;2.30;;
76826;SDS011;65788;52.284;20.890;2023-04-03T08:08:12;5.10;;;2.30;;
76826;SDS011;65788;52.284;20.890;2023-04-03T08:10:42;5.90;;;2.60;;
76826;SDS011;65788;52.284;20.890;2023-04-03T08:13:09;5.50;;;2.00;;
76826;SDS011;65788;52.284;20.890;2023-04-03T08:15:37;6.40;;;2.10;;
76826;SDS011;65788;52.284;20.890;2023-04-03T08:18:04;7.60;;;2.30;;
76826;SDS011;65788;52.284;20.890;2023-04-03T08:20:31;4.50;;;1.90;;
76826;SDS011;65788;52.284;20.890;2023-04-03T08:22:58;4.60;;;2.20;;
76826;SDS011;65788;52.284;20.890;2023-04-03T08:25:24;4.50;;;2.00;;
76826;SDS011;65788;52.284;20.890;2023-04-03T08:27:51;4.50;;;2.00;;
76826;SDS011;65788;52.284;20.890;2023-04-03T08:30:18;4.80;;;1.90;;
76826;SDS011;65788;52.284;20.890;2023-04-03T08:32:46;6.60;;;2.30;;
76826;SDS011;65788;52.284;20.890;2023-04-03T08:35:13;5.90;;;2.20;;
76826;SDS011;65788;52.284;20.890;2023-04-03T08:37:40;7.30;;;2.70;;
76826;SDS011;65788;52.284;20.890;2023-04-03T08:40:10;4.10;;;1.90;;
76826;SDS011;65788;52.284;20.890;2023-04-03T08:42:46;6.40;;;2.00;;
76826;SDS011;65788;52.284;20.890;2023-04-03T08:45:55;4.30;;;1.60;;
76826;SDS011;65788;52.284;20.890;2023-04-03T08:50:50;6.50;;;2.00;;
76826;SDS011;65788;52.284;20.890;2023-04-03T08:53:22;3.50;;;1.80;;
76826;SDS011;65788;52.284;20.890;2023-04-03T08:55:53;4.40;;;2.10;;
76826;SDS011;65788;52.284;20.890;2023-04-03T08:58:22;3.60;;;2.00;;
76826;SDS011;65788;52.284;20.890;2023-04-03T09:00:56;4.70;;;1.90;;
76826;SDS011;65788;52.284;20.890;2023-04-03T09:03:31;6.90;;;2.10;;
76826;SDS011;65788;52.284;20.890;2023-04-03T09:06:04;3.90;;;2.00;;
76826;SDS011;65788;52.284;20.890;2023-04-03T09:16:55;5.40;;;2.10;;
76826;SDS011;65788;52.284;20.890;2023-04-03T09:22:16;4.50;;;1.70;;
76826;SDS011;65788;52.284;20.890;2023-04-03T09:24:47;5.20;;;2.00;;
76826;SDS011;65788;52.284;20.890;2023-04-03T09:27:36;4.10;;;1.70;;
76826;SDS011;65788;52.284;20.890;2023-04-03T09:30:04;3.60;;;1.70;;
76826;SDS011;65788;52.284;20.890;2023-04-03T09:32:34;3.60;;;1.70;;
76826;SDS011;65788;52.284;20.890;2023-04-03T09:35:03;4.20;;;1.70;;
76826;SDS011;65788;52.284;20.890;2023-04-03T09:37:44;3.90;;;1.70;;
76826;SDS011;65788;52.284;20.890;2023-04-03T09:42:52;4.60;;;1.60;;
76826;SDS011;65788;52.284;20.890;2023-04-03T09:50:34;3.80;;;1.80;;
76826;SDS011;65788;52.284;20.890;2023-04-03T09:53:24;3.60;;;1.60;;
76826;SDS011;65788;52.284;20.890;2023-04-03T09:55:56;3.10;;;1.60;;
76826;SDS011;65788;52.284;20.890;2023-04-03T09:58:25;3.20;;;1.60;;
76826;SDS011;65788;52.284;20.890;2023-04-03T10:00:56;4.00;;;2.00;;
76826;SDS011;65788;52.284;20.890;2023-04-03T10:03:29;3.50;;;1.50;;
76826;SDS011;65788;52.284;20.890;2023-04-03T10:05:58;3.50;;;2.00;;
76826;SDS011;65788;52.284;20.890;2023-04-03T10:08:30;4.10;;;1.70;;
76826;SDS011;65788;52.284;20.890;2023-04-03T10:11:32;2.50;;;1.30;;
76826;SDS011;65788;52.284;20.890;2023-04-03T10:13:56;3.20;;;1.70;;
76826;SDS011;65788;52.284;20.890;2023-04-03T10:16:34;4.50;;;1.90;;
76826;SDS011;65788;52.284;20.890;2023-04-03T10:22:10;2.90;;;1.60;;
76826;SDS011;65788;52.284;20.890;2023-04-03T10:27:22;3.10;;;1.60;;
76826;SDS011;65788;52.284;20.890;2023-04-03T10:43:21;4.70;;;1.80;;
76826;SDS011;65788;52.284;20.890;2023-04-03T10:46:08;4.40;;;2.20;;
76826;SDS011;65788;52.284;20.890;2023-04-03T10:56:54;3.10;;;1.60;;
76826;SDS011;65788;52.284;20.890;2023-04-03T10:59:31;2.80;;;1.50;;
76826;SDS011;65788;52.284;20.890;2023-04-03T11:05:05;3.10;;;1.60;;
76826;SDS011;65788;52.284;20.890;2023-04-03T11:07:51;3.10;;;1.60;;
76826;SDS011;65788;52.284;20.890;2023-04-03T11:10:24;3.10;;;1.60;;
76826;SDS011;65788;52.284;20.890;2023-04-03T11:15:46;3.40;;;1.70;;
76826;SDS011;65788;52.284;20.890;2023-04-03T11:18:14;3.40;;;1.80;;
76826;SDS011;65788;52.284;20.890;2023-04-03T11:20:53;2.90;;;1.80;;
76826;SDS011;65788;52.284;20.890;2023-04-03T11:23:42;4.60;;;1.90;;
76826;SDS011;65788;52.284;20.890;2023-04-03T11:26:12;2.40;;;1.50;;
76826;SDS011;65788;52.284;20.890;2023-04-03T11:29:01;3.00;;;1.60;;
76826;SDS011;65788;52.284;20.890;2023-04-03T11:31:52;2.50;;;1.40;;
76826;SDS011;65788;52.284;20.890;2023-04-03T11:37:13;2.90;;;1.80;;
76826;SDS011;65788;52.284;20.890;2023-04-03T11:39:51;3.80;;;1.70;;
76826;SDS011;65788;52.284;20.890;2023-04-03T11:42:29;2.40;;;1.40;;
76826;SDS011;65788;52.284;20.890;2023-04-03T11:47:49;3.00;;;1.40;;
76826;SDS011;65788;52.284;20.890;2023-04-03T11:55:45;4.00;;;1.90;;
76826;SDS011;65788;52.284;20.890;2023-04-03T11:58:23;4.30;;;1.70;;
76826;SDS011;65788;52.284;20.890;2023-04-03T12:00:54;2.90;;;1.50;;
76826;SDS011;65788;52.284;20.890;2023-04-03T12:13:40;3.40;;;1.80;;
76826;SDS011;65788;52.284;20.890;2023-04-03T12:16:21;3.80;;;1.90;;
76826;SDS011;65788;52.284;20.890;2023-04-03T12:21:20;3.40;;;1.60;;
76826;SDS011;65788;52.284;20.890;2023-04-03T12:26:39;4.40;;;1.70;;
76826;SDS011;65788;52.284;20.890;2023-04-03T12:29:25;3.60;;;1.70;;
76826;SDS011;65788;52.284;20.890;2023-04-03T12:32:00;3.60;;;1.50;;
76826;SDS011;65788;52.284;20.890;2023-04-03T12:48:50;2.60;;;1.20;;
76826;SDS011;65788;52.284;20.890;2023-04-03T12:51:19;2.90;;;1.30;;
76826;SDS011;65788;52.284;20.890;2023-04-03T12:53:57;2.50;;;1.30;;
76826;SDS011;65788;52.284;20.890;2023-04-03T12:56:29;3.60;;;1.60;;
76826;SDS011;65788;52.284;20.890;2023-04-03T12:59:12;3.00;;;1.50;;
76826;SDS011;65788;52.284;20.890;2023-04-03T13:01:57;3.50;;;1.40;;
76826;SDS011;65788;52.284;20.890;2023-04-03T13:04:29;3.30;;;1.80;;
76826;SDS011;65788;52.284;20.890;2023-04-03T13:06:58;2.20;;;1.30;;
76826;SDS011;65788;52.284;20.890;2023-04-03T13:11:57;3.30;;;1.70;;
76826;SDS011;65788;52.284;20.890;2023-04-03T13:14:28;2.50;;;1.30;;
76826;SDS011;65788;52.284;20.890;2023-04-03T13:16:59;2.70;;;1.40;;
76826;SDS011;65788;52.284;20.890;2023-04-03T13:19:30;4.10;;;1.60;;
76826;SDS011;65788;52.284;20.890;2023-04-03T13:22:00;2.50;;;1.30;;
76826;SDS011;65788;52.284;20.890;2023-04-03T13:24:46;2.30;;;1.30;;
76826;SDS011;65788;52.284;20.890;2023-04-03T13:27:16;2.90;;;1.50;;
76826;SDS011;65788;52.284;20.890;2023-04-03T13:29:48;2.40;;;1.30;;
76826;SDS011;65788;52.284;20.890;2023-04-03T13:32:21;3.30;;;1.50;;
76826;SDS011;65788;52.284;20.890;2023-04-03T13:34:50;2.70;;;1.60;;
76826;SDS011;65788;52.284;20.890;2023-04-03T13:37:25;3.50;;;1.50;;
76826;SDS011;65788;52.284;20.890;2023-04-03T13:40:03;2.90;;;1.50;;
76826;SDS011;65788;52.284;20.890;2023-04-03T13:42:40;2.80;;;1.40;;
76826;SDS011;65788;52.284;20.890;2023-04-03T13:47:52;2.50;;;1.30;;
76826;SDS011;65788;52.284;20.890;2023-04-03T13:50:24;2.10;;;1.20;;
76826;SDS011;65788;52.284;20.890;2023-04-03T13:53:03;2.80;;;1.40;;
76826;SDS011;65788;52.284;20.890;2023-04-03T13:55:53;3.00;;;1.50;;
76826;SDS011;65788;52.284;20.890;2023-04-03T13:58:34;2.40;;;1.30;;
76826;SDS011;65788;52.284;20.890;2023-04-03T14:01:08;5.10;;;1.60;;
76826;SDS011;65788;52.284;20.890;2023-04-03T14:06:11;3.20;;;1.30;;
76826;SDS011;65788;52.284;20.890;2023-04-03T14:08:42;1.90;;;1.20;;
76826;SDS011;65788;52.284;20.890;2023-04-03T14:11:12;2.20;;;1.30;;
76826;SDS011;65788;52.284;20.890;2023-04-03T14:13:51;2.40;;;1.30;;
76826;SDS011;65788;52.284;20.890;2023-04-03T14:16:19;3.30;;;1.60;;
76826;SDS011;65788;52.284;20.890;2023-04-03T14:18:50;2.00;;;1.30;;
76826;SDS011;65788;52.284;20.890;2023-04-03T14:21:21;2.30;;;1.30;;
76826;SDS011;65788;52.284;20.890;2023-04-03T14:23:49;1.90;;;1.20;;
76826;SDS011;65788;52.284;20.890;2023-04-03T14:26:18;1.70;;;1.10;;
76826;SDS011;65788;52.284;20.890;2023-04-03T14:28:49;2.10;;;1.10;;
76826;SDS011;65788;52.284;20.890;2023-04-03T14:31:18;2.60;;;1.30;;
76826;SDS011;65788;52.284;20.890;2023-04-03T14:33:47;3.10;;;1.30;;
76826;SDS011;65788;52.284;20.890;2023-04-03T14:36:19;2.20;;;1.30;;
76826;SDS011;65788;52.284;20.890;2023-04-03T14:38:50;2.10;;;1.30;;
76826;SDS011;65788;52.284;20.890;2023-04-03T14:41:19;2.90;;;1.10;;
76826;SDS011;65788;52.284;20.890;2023-04-03T14:43:47;2.60;;;1.40;;
76826;SDS011;65788;52.284;20.890;2023-04-03T14:49:05;2.60;;;1.40;;
76826;SDS011;65788;52.284;20.890;2023-04-03T14:51:42;2.50;;;1.30;;
76826;SDS011;65788;52.284;20.890;2023-04-03T14:54:19;2.30;;;1.30;;
76826;SDS011;65788;52.284;20.890;2023-04-03T14:56:51;2.80;;;1.10;;
76826;SDS011;65788;52.284;20.890;2023-04-03T14:59:19;2.30;;;1.20;;
76826;SDS011;65788;52.284;20.890;2023-04-03T15:01:48;2.80;;;1.20;;
76826;SDS011;65788;52.284;20.890;2023-04-03T15:04:15;2.80;;;1.10;;
76826;SDS011;65788;52.284;20.890;2023-04-03T15:06:46;3.30;;;1.30;;
76826;SDS011;65788;52.284;20.890;2023-04-03T15:09:18;2.60;;;1.20;;
76826;SDS011;65788;52.284;20.890;2023-04-03T15:11:46;2.70;;;1.40;;
76826;SDS011;65788;52.284;20.890;2023-04-03T15:14:14;2.50;;;1.10;;
76826;SDS011;65788;52.284;20.890;2023-04-03T15:16:40;1.60;;;1.00;;
76826;SDS011;65788;52.284;20.890;2023-04-03T15:19:07;2.30;;;1.10;;
76826;SDS011;65788;52.284;20.890;2023-04-03T15:21:34;3.00;;;1.20;;
76826;SDS011;65788;52.284;20.890;2023-04-03T15:24:01;2.20;;;1.10;;
76826;SDS011;65788;52.284;20.890;2023-04-03T15:26:28;2.90;;;1.30;;
76826;SDS011;65788;52.284;20.890;2023-04-03T15:28:56;3.20;;;1.20;;
76826;SDS011;65788;52.284;20.890;2023-04-03T15:31:22;2.40;;;1.10;;
76826;SDS011;65788;52.284;20.890;2023-04-03T15:33:50;2.10;;;1.00;;
76826;SDS011;65788;52.284;20.890;2023-04-03T15:36:17;1.80;;;1.00;;
76826;SDS011;65788;52.284;20.890;2023-04-03T15:38:47;3.70;;;1.40;;
76826;SDS011;65788;52.284;20.890;2023-04-03T15:41:13;1.90;;;1.10;;
76826;SDS011;65788;52.284;20.890;2023-04-03T15:43:40;3.70;;;1.00;;
76826;SDS011;65788;52.284;20.890;2023-04-03T15:46:07;1.90;;;1.10;;
76826;SDS011;65788;52.284;20.890;2023-04-03T15:48:35;2.90;;;1.10;;
76826;SDS011;65788;52.284;20.890;2023-04-03T15:51:05;2.00;;;1.20;;
76826;SDS011;65788;52.284;20.890;2023-04-03T15:53:34;2.00;;;1.10;;
76826;SDS011;65788;52.284;20.890;2023-04-03T15:56:01;2.90;;;1.30;;
76826;SDS011;65788;52.284;20.890;2023-04-03T15:58:28;2.00;;;1.10;;
76826;SDS011;65788;52.284;20.890;2023-04-03T16:00:55;1.50;;;0.90;;
76826;SDS011;65788;52.284;20.890;2023-04-03T16:03:23;10.10;;;1.80;;
76826;SDS011;65788;52.284;20.890;2023-04-03T16:05:50;3.10;;;1.30;;
76826;SDS011;65788;52.284;20.890;2023-04-03T16:08:18;2.40;;;0.90;;
76826;SDS011;65788;52.284;20.890;2023-04-03T16:10:45;3.10;;;1.20;;
76826;SDS011;65788;52.284;20.890;2023-04-03T16:13:13;2.10;;;1.10;;
76826;SDS011;65788;52.284;20.890;2023-04-03T16:15:40;2.60;;;1.20;;
76826;SDS011;65788;52.284;20.890;2023-04-03T16:18:08;2.00;;;1.10;;
76826;SDS011;65788;52.284;20.890;2023-04-03T16:20:36;1.70;;;1.00;;
76826;SDS011;65788;52.284;20.890;2023-04-03T16:23:04;1.60;;;1.00;;
76826;SDS011;65788;52.284;20.890;2023-04-03T16:25:31;1.80;;;1.10;;
76826;SDS011;65788;52.284;20.890;2023-04-03T16:27:58;3.40;;;1.50;;
76826;SDS011;65788;52.284;20.890;2023-04-03T16:30:25;4.00;;;1.50;;
76826;SDS011;65788;52.284;20.890;2023-04-03T16:32:53;3.40;;;1.50;;
76826;SDS011;65788;52.284;20.890;2023-04-03T16:35:22;4.20;;;1.70;;
76826;SDS011;65788;52.284;20.890;2023-04-03T16:37:50;3.80;;;2.00;;
76826;SDS011;65788;52.284;20.890;2023-04-03T16:40:17;3.40;;;1.90;;
76826;SDS011;65788;52.284;20.890;2023-04-03T16:42:45;3.20;;;1.80;;
76826;SDS011;65788;52.284;20.890;2023-04-03T16:45:12;5.60;;;1.90;;
76826;SDS011;65788;52.284;20.890;2023-04-03T16:47:39;10.30;;;2.30;;